![]() |
EMODnet Physics ERDDAP
Easier access to scientific data |
log in|
Brought to you by EMODnet Physics |
| Dataset Title: | NDBC - Collection of dew point temperature (DEWT) TimeSeries - IN SITU MultiPointTimeSeriesObservation
|
| Institution: | NDBC (Dataset ID: TS_DEWT_NDBC) |
| Information: | Summary
| License
| FGDC
| ISO 19115
| Metadata
| Background
| Subset
| Data Access Form
| Make a graph
|
| Name | Last modified | Size | Description | |
|---|---|---|---|---|
| Parent Directory | - | - | ||
| 46073_TS_DEWT_012006.nc | 26-Dec-2024 16:16 | 630573 | ||
| 46073_TS_DEWT_012010.nc | 26-Dec-2024 16:27 | 629237 | ||
| 46073_TS_DEWT_012011.nc | 26-Dec-2024 16:30 | 492834 | ||
| 46073_TS_DEWT_012015.nc | 26-Dec-2024 16:32 | 4894686 | ||
| 46073_TS_DEWT_012019.nc | 26-Dec-2024 16:37 | 480011 | ||
| 46073_TS_DEWT_022006.nc | 26-Dec-2024 16:16 | 480577 | ||
| 46073_TS_DEWT_022010.nc | 26-Dec-2024 16:27 | 479774 | ||
| 46073_TS_DEWT_022011.nc | 26-Dec-2024 16:30 | 480097 | ||
| 46073_TS_DEWT_022015.nc | 26-Dec-2024 16:32 | 478897 | ||
| 46073_TS_DEWT_022019.nc | 26-Dec-2024 16:37 | 481551 | ||
| 46073_TS_DEWT_032006.nc | 26-Dec-2024 16:17 | 467992 | ||
| 46073_TS_DEWT_032010.nc | 26-Dec-2024 16:27 | 480636 | ||
| 46073_TS_DEWT_032011.nc | 26-Dec-2024 16:30 | 472252 | ||
| 46073_TS_DEWT_042010.nc | 26-Dec-2024 16:28 | 4702715 | ||
| 46073_TS_DEWT_042011.nc | 26-Dec-2024 16:30 | 3319961 | ||
| 46073_TS_DEWT_052005.nc | 26-Dec-2024 16:14 | 627757 | ||
| 46073_TS_DEWT_052010.nc | 26-Dec-2024 16:28 | 631156 | ||
| 46073_TS_DEWT_052024.nc | 19-Jan-2026 23:38 | 630011 | ||
| 46073_TS_DEWT_062005.nc | 26-Dec-2024 16:14 | 469484 | ||
| 46073_TS_DEWT_062008.nc | 26-Dec-2024 16:23 | 628973 | ||
| 46073_TS_DEWT_062010.nc | 26-Dec-2024 16:28 | 630334 | ||
| 46073_TS_DEWT_062019.nc | 26-Dec-2024 16:37 | 460506 | ||
| 46073_TS_DEWT_062020.nc | 26-Dec-2024 16:38 | 629531 | ||
| 46073_TS_DEWT_062022.nc | 26-Dec-2024 16:42 | 451007 | ||
| 46073_TS_DEWT_062023.nc | 26-Dec-2024 16:44 | 4436964 | ||
| 46073_TS_DEWT_062024.nc | 19-Jan-2026 23:44 | 429605 | ||
| 46073_TS_DEWT_072005.nc | 26-Dec-2024 16:15 | 429607 | ||
| 46073_TS_DEWT_072008.nc | 26-Dec-2024 16:23 | 429699 | ||
| 46073_TS_DEWT_072010.nc | 26-Dec-2024 16:28 | 429617 | ||
| 46073_TS_DEWT_072014.nc | 26-Dec-2024 16:31 | 429625 | ||
| 46073_TS_DEWT_072020.nc | 26-Dec-2024 16:38 | 428233 | ||
| 46073_TS_DEWT_072022.nc | 26-Dec-2024 16:42 | 429619 | ||
| 46073_TS_DEWT_072023.nc | 26-Dec-2024 16:44 | 429597 | ||
| 46073_TS_DEWT_072024.nc | 19-Jan-2026 23:47 | 423878 | ||
| 46073_TS_DEWT_072025.nc | 19-Jan-2026 23:59 | 429616 | ||
| 46073_TS_DEWT_082005.nc | 26-Dec-2024 16:15 | 429614 | ||
| 46073_TS_DEWT_082008.nc | 26-Dec-2024 16:23 | 429301 | ||
| 46073_TS_DEWT_082009.nc | 26-Dec-2024 16:26 | 429614 | ||
| 46073_TS_DEWT_082010.nc | 26-Dec-2024 16:29 | 438158 | ||
| 46073_TS_DEWT_082014.nc | 26-Dec-2024 16:31 | 450208 | ||
| 46073_TS_DEWT_082018.nc | 26-Dec-2024 16:36 | 450457 | ||
| 46073_TS_DEWT_082020.nc | 26-Dec-2024 16:38 | 450267 | ||
| 46073_TS_DEWT_082022.nc | 26-Dec-2024 16:42 | 450864 | ||
| 46073_TS_DEWT_082023.nc | 26-Dec-2024 16:44 | 450742 | ||
| 46073_TS_DEWT_082024.nc | 19-Jan-2026 23:49 | 449735 | ||
| 46073_TS_DEWT_082025.nc | 20-Jan-2026 00:00 | 449571 | ||
| 46073_TS_DEWT_092005.nc | 26-Dec-2024 16:15 | 429840 | ||
| 46073_TS_DEWT_092009.nc | 26-Dec-2024 16:26 | 449892 | ||
| 46073_TS_DEWT_092010.nc | 26-Dec-2024 16:29 | 450408 | ||
| 46073_TS_DEWT_092014.nc | 26-Dec-2024 16:31 | 450857 | ||
| 46073_TS_DEWT_092018.nc | 26-Dec-2024 16:36 | 450167 | ||
| 46073_TS_DEWT_092020.nc | 26-Dec-2024 16:38 | 450540 | ||
| 46073_TS_DEWT_092022.nc | 26-Dec-2024 16:42 | 450456 | ||
| 46073_TS_DEWT_092023.nc | 26-Dec-2024 16:45 | 450798 | ||
| 46073_TS_DEWT_092024.nc | 19-Jan-2026 23:51 | 451224 | ||
| 46073_TS_DEWT_092025.nc | 20-Jan-2026 00:01 | 450645 | ||
| 46073_TS_DEWT_102005.nc | 26-Dec-2024 16:15 | 450878 | ||
| 46073_TS_DEWT_102009.nc | 26-Dec-2024 16:26 | 451334 | ||
| 46073_TS_DEWT_102010.nc | 26-Dec-2024 16:29 | 429731 | ||
| 46073_TS_DEWT_102014.nc | 26-Dec-2024 16:31 | 445912 | ||
| 46073_TS_DEWT_102018.nc | 26-Dec-2024 16:36 | 446682 | ||
| 46073_TS_DEWT_102022.nc | 26-Dec-2024 16:42 | 449547 | ||
| 46073_TS_DEWT_102023.nc | 26-Dec-2024 16:45 | 429488 | ||
| 46073_TS_DEWT_102024.nc | 19-Jan-2026 23:52 | 429840 | ||
| 46073_TS_DEWT_102025.nc | 20-Jan-2026 00:03 | 1098976 | ||
| 46073_TS_DEWT_112005.nc | 26-Dec-2024 16:16 | 424779 | ||
| 46073_TS_DEWT_112009.nc | 26-Dec-2024 16:27 | 428602 | ||
| 46073_TS_DEWT_112010.nc | 26-Dec-2024 16:29 | 428539 | ||
| 46073_TS_DEWT_112014.nc | 26-Dec-2024 16:32 | 428613 | ||
| 46073_TS_DEWT_112018.nc | 26-Dec-2024 16:36 | 428964 | ||
| 46073_TS_DEWT_112022.nc | 26-Dec-2024 16:42 | 428618 | ||
| 46073_TS_DEWT_112023.nc | 26-Dec-2024 16:46 | 428618 | ||
| 46073_TS_DEWT_112025.nc | 20-Jan-2026 00:03 | 427605 | ||
| 46073_TS_DEWT_122005.nc | 26-Dec-2024 16:16 | 428949 | ||
| 46073_TS_DEWT_122009.nc | 26-Dec-2024 16:27 | 427502 | ||
| 46073_TS_DEWT_122010.nc | 26-Dec-2024 16:29 | 428436 | ||
| 46073_TS_DEWT_122014.nc | 26-Dec-2024 16:32 | 428618 | ||
| 46073_TS_DEWT_122018.nc | 26-Dec-2024 16:37 | 428963 | ||
| 46073_TS_DEWT_122022.nc | 26-Dec-2024 16:43 | 428615 | ||